KJYR

York Municipal Airport

York, Nebraska, USA
METAR KJYR 151635Z AUTO 20010KT 10SM CLR 03/00 A3015 RMK AO2
Observed Flight Rules
Dec-15 @ 16:35 UTC (24 minutes ago) Visual Flight Rules
Wind Visibility Clouds
200° at 10 knots 10 miles
  • Clear skies
Temperatures Readings
Current 3°C / 37°F
Dewpoint 0°C / 32°F
Humidity 81%
Altimeter 30.15" Hg
Pressure 1021 hPa
Elevation 509
METAR KJYR 151635Z AUTO 20010KT 10SM CLR 03/00 A3015 RMK AO2
Observed Flight Rules
Dec-15 @ 16:35 UTC
(24 minutes ago)
VFR
Wind Visibility
200° at 10 knots 10 miles
Clouds
  • Clear skies
Temperature Dewpoint
3°C / 37°F 0°C / 32°F
Humidity Altimeter Pressure
81% 30.15" Hg 1021 hPa